Time;durP1;ratioP1;P1;durP2;ratioP2;P2;SDS_P1;SDS_P2;PMS_P1;PMS_P2;Temp;Humidity;BMP_temperature;BMP_pressure;BME280_temperature;BME280_humidity;BME280_pressure;Samples;Min_cycle;Max_cycle;Signal;HPM_P1;HPM_P2
2023/09/06 00:00:51;;;;;;;13.13;6.60;;;18.90;99.90;;;;;;5003379;28;20038;-75
2023/09/06 00:03:17;;;;;;;10.60;6.40;;;18.80;99.90;;;;;;5003237;28;20412;-74
2023/09/06 00:05:42;;;;;;;10.95;6.40;;;18.80;99.90;;;;;;5002060;28;20046;-75
2023/09/06 00:08:09;;;;;;;8.40;6.10;;;18.80;99.90;;;;;;5003907;28;20049;-73
2023/09/06 00:10:40;;;;;;;10.63;6.18;;;18.80;99.90;;;;;;5001931;28;20531;-74
2023/09/06 00:13:09;;;;;;;8.68;6.25;;;18.80;99.90;;;;;;5004062;28;20092;-73
2023/09/06 00:15:35;;;;;;;8.35;6.30;;;18.80;99.90;;;;;;5002258;28;20497;-74
2023/09/06 00:18:05;;;;;;;9.23;6.50;;;18.70;99.90;;;;;;5000333;28;20128;-74
2023/09/06 00:20:34;;;;;;;10.07;6.40;;;18.70;99.90;;;;;;4993459;28;20504;-75
2023/09/06 00:23:01;;;;;;;8.00;6.30;;;18.70;99.90;;;;;;5003355;28;20153;-75
2023/09/06 00:25:30;;;;;;;8.13;5.95;;;18.60;99.90;;;;;;4985499;28;20085;-73
2023/09/06 00:27:57;;;;;;;9.10;6.30;;;18.60;99.90;;;;;;4982812;28;20489;-74
2023/09/06 00:30:23;;;;;;;12.32;7.50;;;18.60;99.90;;;;;;4982711;28;20056;-74
2023/09/06 00:32:52;;;;;;;10.57;6.75;;;18.60;99.90;;;;;;4995390;28;20034;-74
2023/09/06 00:35:19;;;;;;;10.70;7.57;;;18.60;99.90;;;;;;4985812;28;20116;-74
2023/09/06 00:37:45;;;;;;;11.48;7.20;;;18.60;99.90;;;;;;5001266;28;20112;-75
2023/09/06 00:40:21;;;;;;;9.82;6.78;;;18.50;99.90;;;;;;5001222;28;20496;-74
2023/09/06 00:42:51;;;;;;;11.50;6.35;;;18.50;99.90;;;;;;5002987;28;20469;-73
2023/09/06 00:45:23;;;;;;;9.38;7.35;;;18.50;99.90;;;;;;5001511;28;20042;-75
2023/09/06 00:47:49;;;;;;;;;;;18.50;99.90;;;;;;5004111;28;20049;-75
2023/09/06 00:50:16;;;;;;;8.85;6.35;;;18.50;99.90;;;;;;5002631;28;19921;-74
2023/09/06 00:52:42;;;;;;;11.52;7.43;;;18.50;99.90;;;;;;5002165;28;20401;-74
2023/09/06 00:55:09;;;;;;;12.00;7.95;;;18.40;99.90;;;;;;5002205;28;20044;-74
2023/09/06 00:57:35;;;;;;;10.27;7.32;;;18.40;99.90;;;;;;5002847;28;20038;-73
2023/09/06 01:00:05;;;;;;;11.65;8.25;;;18.40;99.90;;;;;;4996692;28;20043;-75
2023/09/06 01:02:31;;;;;;;10.60;7.65;;;18.40;99.90;;;;;;4982663;28;20046;-75
2023/09/06 01:04:57;;;;;;;11.23;7.65;;;18.40;99.90;;;;;;4981653;28;20049;-75
2023/09/06 01:07:27;;;;;;;12.07;8.63;;;18.40;99.90;;;;;;4997492;28;20096;-74
2023/09/06 01:09:53;;;;;;;11.85;8.00;;;18.40;99.90;;;;;;5001241;28;20065;-74
2023/09/06 01:12:18;;;;;;;11.90;7.78;;;18.40;99.90;;;;;;4970625;28;20061;-74
2023/09/06 01:14:44;;;;;;;16.80;8.32;;;18.30;99.90;;;;;;4982426;28;20406;-75
2023/09/06 01:17:13;;;;;;;9.32;6.78;;;18.30;99.90;;;;;;4964884;28;20042;-75
2023/09/06 01:19:45;;;;;;;9.55;7.15;;;18.30;99.90;;;;;;4965620;28;20049;-74
2023/09/06 01:22:18;;;;;;;10.82;7.78;;;18.30;99.90;;;;;;4982354;28;20750;-75
2023/09/06 01:24:44;;;;;;;10.95;7.80;;;18.30;99.90;;;;;;4981896;28;20049;-74
2023/09/06 01:27:12;;;;;;;13.38;8.93;;;18.30;99.90;;;;;;4964632;28;20049;-73
2023/09/06 01:29:38;;;;;;;9.95;7.40;;;18.30;99.90;;;;;;4982885;28;20045;-74
2023/09/06 01:32:05;;;;;;;11.88;8.00;;;18.20;99.90;;;;;;4981767;28;20058;-74
2023/09/06 01:34:31;;;;;;;11.15;7.43;;;18.20;99.90;;;;;;4965133;28;20039;-74
2023/09/06 01:36:57;;;;;;;12.07;7.90;;;18.20;99.90;;;;;;4982212;28;20128;-74
2023/09/06 01:39:22;;;;;;;11.90;7.65;;;18.20;99.90;;;;;;4982829;28;20082;-74
2023/09/06 01:41:48;;;;;;;10.90;8.75;;;18.20;99.90;;;;;;4981629;28;20030;-74
2023/09/06 01:44:14;;;;;;;11.85;7.93;;;18.20;99.90;;;;;;4982507;28;20042;-73
2023/09/06 01:46:40;;;;;;;12.48;7.72;;;18.10;99.90;;;;;;4965019;28;20339;-75
2023/09/06 01:49:08;;;;;;;10.18;7.35;;;18.10;99.90;;;;;;4983147;28;20038;-73
2023/09/06 01:51:34;;;;;;;11.20;8.07;;;18.10;99.90;;;;;;4965254;28;20042;-73
2023/09/06 01:54:04;;;;;;;12.32;8.77;;;18.10;99.90;;;;;;4982493;28;20043;-74
2023/09/06 01:56:30;;;;;;;8.82;7.22;;;18.10;99.90;;;;;;4981465;28;20457;-74
2023/09/06 01:58:55;;;;;;;12.82;8.05;;;18.00;99.90;;;;;;4952845;28;20118;-74
2023/09/06 02:01:21;;;;;;;12.30;8.45;;;18.00;99.90;;;;;;4945833;28;20050;-74
2023/09/06 02:03:46;;;;;;;12.88;8.20;;;18.00;99.90;;;;;;4980581;28;20046;-73
2023/09/06 02:06:12;;;;;;;12.13;8.23;;;18.00;99.90;;;;;;4982542;28;20034;-73
2023/09/06 02:08:40;;;;;;;12.50;8.77;;;18.00;99.90;;;;;;4983227;28;20042;-75
2023/09/06 02:11:06;;;;;;;11.77;8.68;;;18.00;99.90;;;;;;5003428;28;20053;-74
2023/09/06 02:13:32;;;;;;;15.60;8.27;;;18.00;99.90;;;;;;5005591;28;20450;-73
2023/09/06 02:16:02;;;;;;;13.55;9.45;;;17.90;99.90;;;;;;5005418;28;20220;-74
2023/09/06 02:18:28;;;;;;;11.90;7.53;;;17.90;99.90;;;;;;5004598;28;20042;-73
2023/09/06 02:20:58;;;;;;;11.95;8.25;;;17.90;99.90;;;;;;5005667;28;20503;-74
2023/09/06 02:23:24;;;;;;;11.15;7.82;;;17.90;99.90;;;;;;5005310;28;20504;-74
2023/09/06 02:25:49;;;;;;;9.38;7.32;;;17.90;99.90;;;;;;5004682;28;20034;-74
2023/09/06 02:28:17;;;;;;;11.10;7.47;;;17.80;99.90;;;;;;5005154;28;20042;-74
2023/09/06 02:30:43;;;;;;;11.32;7.60;;;17.80;99.90;;;;;;5005142;28;20053;-74
2023/09/06 02:33:13;;;;;;;15.95;8.38;;;17.80;99.90;;;;;;5005016;28;20087;-75
2023/09/06 02:35:42;;;;;;;10.35;7.78;;;17.80;99.90;;;;;;5005467;28;20125;-73
2023/09/06 02:38:12;;;;;;;10.93;7.68;;;17.80;99.90;;;;;;5005224;28;20030;-74
2023/09/06 02:40:40;;;;;;;12.05;7.05;;;17.70;99.90;;;;;;5004215;28;20076;-73
2023/09/06 02:43:06;;;;;;;10.13;7.85;;;17.70;99.90;;;;;;5005526;28;20050;-74
2023/09/06 02:45:38;;;;;;;11.45;7.75;;;17.70;99.90;;;;;;5003179;28;20420;-74
2023/09/06 02:48:07;;;;;;;10.05;6.80;;;17.70;99.90;;;;;;5004945;28;20037;-74
2023/09/06 02:50:34;;;;;;;9.98;6.97;;;17.70;99.90;;;;;;5004874;28;20042;-73
2023/09/06 02:53:03;;;;;;;9.45;7.72;;;17.60;99.90;;;;;;5005130;28;20049;-74
2023/09/06 02:55:35;;;;;;;10.88;7.45;;;17.60;99.90;;;;;;4985652;28;20050;-75
2023/09/06 02:58:01;;;;;;;11.88;7.10;;;17.60;99.90;;;;;;5003303;28;20440;-75
2023/09/06 03:00:29;;;;;;;9.23;6.95;;;17.50;99.90;;;;;;5004949;28;20049;-75
2023/09/06 03:03:05;;;;;;;12.02;7.22;;;17.60;99.90;;;;;;5004638;28;20052;-74
2023/09/06 03:05:41;;;;;;;12.30;7.90;;;17.50;99.90;;;;;;5003283;28;20125;-75
2023/09/06 03:08:07;;;;;;;12.40;7.63;;;17.50;99.90;;;;;;4984863;28;20054;-75
2023/09/06 03:10:33;;;;;;;11.30;7.32;;;17.50;99.90;;;;;;4981983;28;20065;-74
2023/09/06 03:12:59;;;;;;;10.75;6.50;;;17.50;99.90;;;;;;4985241;28;20054;-73
2023/09/06 03:15:29;;;;;;;8.93;6.72;;;17.50;99.90;;;;;;4983641;28;20046;-74
2023/09/06 03:17:58;;;;;;;8.52;7.28;;;17.40;99.90;;;;;;4998474;28;20339;-74
2023/09/06 03:23:17;;;;;;;10.85;8.02;;;17.40;99.90;;;;;;5004819;28;20137;-73
2023/09/06 03:25:48;;;;;;;11.75;7.05;;;17.40;99.90;;;;;;5002498;28;20412;-75
2023/09/06 03:28:18;;;;;;;10.60;6.90;;;17.40;99.90;;;;;;5002704;28;20054;-74
2023/09/06 03:30:44;;;;;;;9.25;7.07;;;17.30;99.90;;;;;;5004115;28;20050;-74
2023/09/06 03:33:10;;;;;;;10.88;8.18;;;17.30;99.90;;;;;;5002841;28;20083;-74
2023/09/06 03:35:36;;;;;;;10.13;6.47;;;17.30;99.90;;;;;;5004057;28;20056;-74
2023/09/06 03:38:02;;;;;;;10.27;6.05;;;17.20;99.90;;;;;;5004269;28;20038;-74
2023/09/06 03:40:35;;;;;;;9.73;6.68;;;17.20;99.90;;;;;;5001809;28;20057;-74
2023/09/06 03:43:05;;;;;;;9.80;6.78;;;17.20;99.90;;;;;;5003735;28;20034;-74
2023/09/06 03:45:34;;;;;;;10.10;6.32;;;17.20;99.90;;;;;;5002497;28;20297;-73
2023/09/06 03:48:00;;;;;;;7.25;6.07;;;17.10;99.90;;;;;;5002560;28;20176;-73
2023/09/06 03:50:27;;;;;;;8.23;6.10;;;17.10;99.90;;;;;;5003752;28;20045;-74
2023/09/06 03:52:53;;;;;;;7.47;6.32;;;17.10;99.90;;;;;;5004138;28;20062;-73
2023/09/06 03:55:20;;;;;;;8.35;6.50;;;17.10;99.90;;;;;;5003070;28;20041;-75
2023/09/06 03:57:47;;;;;;;11.95;6.20;;;17.10;99.90;;;;;;5003027;28;20550;-73
2023/09/06 04:00:31;;;;;;;7.85;5.78;;;17.10;99.90;;;;;;5003859;28;20046;-73
2023/09/06 04:02:57;;;;;;;8.52;5.82;;;17.00;99.90;;;;;;5002831;28;20138;-74
2023/09/06 04:05:25;;;;;;;10.18;6.05;;;17.10;99.90;;;;;;5002216;28;20515;-73
2023/09/06 04:08:03;;;;;;;9.75;6.50;;;17.00;99.90;;;;;;5004030;28;20037;-73
2023/09/06 04:10:36;;;;;;;8.80;6.45;;;17.10;99.90;;;;;;4984669;28;20069;-73
2023/09/06 04:13:07;;;;;;;8.73;6.85;;;17.00;99.90;;;;;;5002565;28;20481;-74
2023/09/06 04:15:34;;;;;;;8.00;5.95;;;17.00;99.90;;;;;;5003515;28;20471;-74
2023/09/06 04:18:02;;;;;;;9.90;6.35;;;17.00;99.90;;;;;;5003589;28;20096;-74
2023/09/06 04:20:35;;;;;;;8.13;6.07;;;17.00;99.90;;;;;;5003291;28;20053;-73
2023/09/06 04:23:04;;;;;;;6.93;5.68;;;17.00;99.90;;;;;;5003341;28;20033;-73
2023/09/06 04:25:34;;;;;;;9.82;5.88;;;17.00;99.90;;;;;;5001241;28;20057;-74
2023/09/06 04:28:01;;;;;;;9.18;5.72;;;17.00;99.90;;;;;;5002801;28;20068;-74
2023/09/06 04:30:28;;;;;;;6.10;5.30;;;17.00;99.90;;;;;;5001475;28;20046;-74
2023/09/06 04:32:57;;;;;;;9.85;5.82;;;17.00;99.90;;;;;;5001506;28;20096;-75
2023/09/06 04:35:31;;;;;;;6.85;5.40;;;16.90;99.90;;;;;;5002638;28;20045;-75
2023/09/06 04:37:57;;;;;;;6.10;5.00;;;16.90;99.90;;;;;;5001538;28;20048;-74
2023/09/06 04:40:22;;;;;;;9.70;6.20;;;16.90;99.90;;;;;;5000963;28;20404;-74
2023/09/06 04:42:48;;;;;;;9.13;5.45;;;16.90;99.90;;;;;;5001759;28;20034;-74
2023/09/06 04:45:13;;;;;;;8.10;5.07;;;16.80;99.90;;;;;;5002393;28;20056;-74
2023/09/06 04:47:43;;;;;;;8.80;5.10;;;16.80;99.90;;;;;;5003323;28;20030;-75
2023/09/06 04:50:11;;;;;;;6.78;4.97;;;16.80;99.90;;;;;;4985702;28;20251;-74
2023/09/06 04:52:42;;;;;;;7.90;4.50;;;16.80;99.90;;;;;;5001834;28;20042;-73
2023/09/06 04:55:08;;;;;;;5.75;5.15;;;16.80;99.90;;;;;;5002720;28;20100;-73
2023/09/06 04:57:36;;;;;;;6.38;4.38;;;16.70;99.90;;;;;;5001787;28;20057;-74
2023/09/06 05:00:11;;;;;;;6.40;4.65;;;16.70;99.90;;;;;;5002736;28;20038;-75
2023/09/06 05:02:37;;;;;;;7.40;4.78;;;16.70;99.90;;;;;;4999955;28;20046;-73
2023/09/06 05:05:03;;;;;;;9.13;5.28;;;16.70;99.90;;;;;;4999271;28;20050;-75
2023/09/06 05:07:30;;;;;;;6.47;4.53;;;16.70;99.90;;;;;;5001173;28;20059;-75
2023/09/06 05:09:57;;;;;;;6.13;4.80;;;16.70;99.90;;;;;;5001054;28;20104;-75
2023/09/06 05:12:23;;;;;;;8.13;5.20;;;16.70;99.90;;;;;;5003058;28;20117;-74
2023/09/06 05:14:48;;;;;;;6.88;5.13;;;16.70;99.90;;;;;;5003908;28;20121;-75
2023/09/06 05:17:14;;;;;;;6.97;5.10;;;16.70;99.90;;;;;;5003640;28;20053;-74
2023/09/06 05:19:39;;;;;;;6.10;4.63;;;16.60;99.90;;;;;;5003288;28;20038;-73
2023/09/06 05:22:05;;;;;;;5.88;5.13;;;16.60;99.90;;;;;;5002499;28;20042;-74
2023/09/06 05:24:30;;;;;;;9.02;4.95;;;16.60;99.90;;;;;;5001207;28;20097;-73
2023/09/06 05:26:56;;;;;;;7.47;5.20;;;16.60;99.90;;;;;;5004000;28;20045;-74
2023/09/06 05:29:22;;;;;;;9.23;5.18;;;16.60;99.90;;;;;;5002509;28;20524;-74
2023/09/06 05:31:47;;;;;;;6.20;4.13;;;16.60;99.90;;;;;;5001636;28;20048;-74
2023/09/06 05:34:13;;;;;;;6.72;4.45;;;16.60;99.90;;;;;;5000112;28;20041;-74
2023/09/06 05:36:38;;;;;;;6.63;4.68;;;16.60;99.90;;;;;;4998041;28;20046;-74
2023/09/06 05:39:07;;;;;;;7.90;4.40;;;16.70;99.90;;;;;;5000250;28;20042;-76
2023/09/06 05:41:33;;;;;;;8.77;4.70;;;16.70;99.90;;;;;;5001666;28;20084;-73
2023/09/06 05:43:59;;;;;;;7.95;5.13;;;16.70;99.90;;;;;;5000838;28;20445;-74
2023/09/06 05:46:24;;;;;;;6.80;4.88;;;16.70;99.90;;;;;;5005247;28;20116;-72
2023/09/06 05:48:50;;;;;;;8.48;4.25;;;16.70;99.90;;;;;;5000846;28;20037;-74
2023/09/06 05:51:15;;;;;;;8.15;4.13;;;16.70;99.90;;;;;;5002652;28;20591;-74
2023/09/06 05:53:41;;;;;;;7.68;4.75;;;16.70;99.90;;;;;;5003397;28;20045;-73
2023/09/06 05:56:07;;;;;;;6.60;4.65;;;16.80;99.90;;;;;;5003891;28;20050;-73
2023/09/06 05:58:37;;;;;;;6.82;4.68;;;16.80;99.90;;;;;;4988988;28;20385;-73
2023/09/06 06:01:06;;;;;;;9.30;4.53;;;16.80;99.90;;;;;;4999060;28;20052;-73
2023/09/06 06:03:32;;;;;;;7.70;4.88;;;16.80;99.90;;;;;;5007390;28;20042;-73
2023/09/06 06:05:58;;;;;;;8.05;4.93;;;16.90;99.90;;;;;;5007179;28;20731;-72
2023/09/06 06:08:23;;;;;;;8.98;4.47;;;16.90;99.90;;;;;;5002139;28;20038;-72
2023/09/06 06:10:51;;;;;;;6.75;4.28;;;16.90;99.90;;;;;;5006014;28;20061;-72
2023/09/06 06:13:16;;;;;;;7.63;4.18;;;16.90;99.90;;;;;;5004270;28;20050;-72
2023/09/06 06:15:42;;;;;;;6.55;4.63;;;16.90;99.90;;;;;;4988105;28;20060;-72
2023/09/06 06:18:08;;;;;;;7.53;4.32;;;17.00;99.90;;;;;;5001013;28;20113;-72
2023/09/06 06:20:36;;;;;;;6.63;4.30;;;17.00;99.90;;;;;;4999918;28;20077;-72
2023/09/06 06:23:01;;;;;;;6.63;4.47;;;17.00;99.90;;;;;;4996131;28;20449;-74
2023/09/06 06:25:27;;;;;;;4.75;4.00;;;17.10;99.90;;;;;;5004900;28;20088;-73
2023/09/06 06:27:52;;;;;;;7.00;4.10;;;17.10;99.90;;;;;;5005604;28;20442;-73
2023/09/06 06:30:18;;;;;;;5.90;3.92;;;17.10;99.90;;;;;;5004448;28;20092;-71
2023/09/06 06:32:44;;;;;;;4.72;3.95;;;17.20;99.90;;;;;;5004677;28;20516;-72
2023/09/06 06:35:12;;;;;;;5.75;3.67;;;17.20;99.90;;;;;;5009378;28;20563;-71
2023/09/06 06:37:38;;;;;;;7.35;3.75;;;17.20;99.90;;;;;;4992889;28;20088;-71
2023/09/06 06:40:05;;;;;;;6.75;4.63;;;17.30;99.90;;;;;;5001207;28;20392;-71
2023/09/06 06:42:32;;;;;;;5.47;4.35;;;17.30;99.90;;;;;;5005011;28;20117;-71
2023/09/06 06:44:57;;;;;;;5.78;3.90;;;17.30;99.90;;;;;;5004958;28;20045;-71
2023/09/06 06:47:23;;;;;;;6.05;3.90;;;17.40;99.90;;;;;;5004115;28;20064;-72
2023/09/06 06:49:54;;;;;;;6.53;4.80;;;17.50;99.90;;;;;;5005585;28;20128;-70
2023/09/06 06:52:20;;;;;;;5.60;3.70;;;17.50;99.90;;;;;;5004953;28;20034;-70
2023/09/06 06:54:47;;;;;;;5.65;4.50;;;17.60;99.90;;;;;;5003419;28;20189;-70
2023/09/06 06:57:12;;;;;;;5.72;4.45;;;17.60;99.90;;;;;;5002780;28;20402;-69
2023/09/06 06:59:38;;;;;;;6.38;4.05;;;17.60;99.90;;;;;;5004105;28;20219;-70
2023/09/06 07:02:04;;;;;;;5.60;4.53;;;17.70;99.90;;;;;;5005204;28;20546;-69
2023/09/06 07:04:29;;;;;;;6.95;4.32;;;17.70;99.90;;;;;;5019004;28;20082;-70
2023/09/06 07:06:55;;;;;;;6.50;4.63;;;17.80;99.90;;;;;;5005140;28;20041;-70
2023/09/06 07:09:21;;;;;;;7.05;4.03;;;17.80;99.90;;;;;;5003333;28;20306;-70
2023/09/06 07:11:47;;;;;;;5.78;3.85;;;17.80;99.90;;;;;;5005375;28;20096;-69
2023/09/06 07:14:13;;;;;;;5.47;4.38;;;17.90;99.90;;;;;;5004365;28;20042;-70
2023/09/06 07:16:39;;;;;;;6.65;4.40;;;17.90;99.90;;;;;;5004651;28;20052;-70
2023/09/06 07:19:05;;;;;;;5.88;3.95;;;17.90;99.90;;;;;;5004851;28;20169;-69
2023/09/06 07:21:31;;;;;;;6.80;4.85;;;18.00;99.90;;;;;;5004084;28;20117;-70
2023/09/06 07:23:56;;;;;;;6.03;4.60;;;18.00;99.90;;;;;;5003969;28;20049;-70
2023/09/06 07:26:22;;;;;;;6.72;4.28;;;18.10;99.90;;;;;;5004068;28;20157;-70
2023/09/06 07:28:48;;;;;;;6.63;4.30;;;18.10;99.90;;;;;;5004158;28;20131;-70
2023/09/06 07:31:14;;;;;;;6.60;4.45;;;18.20;99.90;;;;;;5002794;28;20251;-70
2023/09/06 07:33:40;;;;;;;7.50;5.32;;;18.20;99.90;;;;;;5004351;28;20037;-70
2023/09/06 07:36:07;;;;;;;7.45;4.78;;;18.30;99.90;;;;;;5003782;28;20404;-70
2023/09/06 07:38:33;;;;;;;8.68;6.03;;;18.30;99.90;;;;;;5001514;28;20038;-70
2023/09/06 07:41:01;;;;;;;8.18;4.13;;;18.40;99.90;;;;;;5001617;28;20145;-70
2023/09/06 07:43:28;;;;;;;7.22;4.95;;;18.50;99.90;;;;;;4988099;28;20042;-70
2023/09/06 07:45:58;;;;;;;8.23;5.22;;;18.50;99.90;;;;;;4988537;28;20507;-70
2023/09/06 07:48:29;;;;;;;8.48;4.28;;;18.60;99.90;;;;;;5003816;28;20045;-70
2023/09/06 07:50:56;;;;;;;7.03;4.47;;;18.60;99.90;;;;;;5004070;28;20045;-70
2023/09/06 07:53:23;;;;;;;5.22;4.05;;;18.70;99.90;;;;;;5003812;28;20053;-70
2023/09/06 07:55:49;;;;;;;8.30;4.75;;;18.70;99.90;;;;;;5003266;28;20038;-70
2023/09/06 07:58:16;;;;;;;8.07;4.20;;;18.70;99.90;;;;;;5001550;28;20544;-71
2023/09/06 08:00:42;;;;;;;6.38;4.55;;;18.80;99.90;;;;;;5002891;28;20132;-70
2023/09/06 08:03:08;;;;;;;6.03;4.10;;;18.90;99.90;;;;;;5003137;28;20045;-70
2023/09/06 08:05:37;;;;;;;7.50;4.63;;;18.90;99.90;;;;;;5002842;28;20046;-70
2023/09/06 08:08:07;;;;;;;6.60;4.35;;;18.90;99.90;;;;;;5001320;28;20046;-70
2023/09/06 08:10:33;;;;;;;5.78;4.10;;;19.00;99.90;;;;;;5000358;28;20037;-70
2023/09/06 08:12:59;;;;;;;8.15;4.70;;;19.00;99.90;;;;;;5004010;28;20057;-70
2023/09/06 08:15:25;;;;;;;7.70;4.78;;;19.10;99.90;;;;;;5003236;28;20042;-70
2023/09/06 08:17:51;;;;;;;7.22;4.47;;;19.10;99.90;;;;;;5003686;28;20045;-70
2023/09/06 08:20:17;;;;;;;6.10;4.40;;;19.10;99.90;;;;;;5003399;28;20352;-70
2023/09/06 08:22:45;;;;;;;7.53;4.50;;;19.20;99.90;;;;;;5004858;28;20038;-70
2023/09/06 08:25:12;;;;;;;6.15;4.32;;;19.20;99.90;;;;;;5013849;28;20500;-70
2023/09/06 08:27:37;;;;;;;5.72;3.83;;;19.30;99.90;;;;;;5003309;28;20042;-70
2023/09/06 08:30:04;;;;;;;7.70;4.30;;;19.30;99.90;;;;;;5006015;28;20044;-69
2023/09/06 08:32:30;;;;;;;8.05;3.78;;;19.40;99.90;;;;;;5003297;28;20033;-69
2023/09/06 08:34:57;;;;;;;6.68;4.40;;;19.40;99.90;;;;;;5001831;28;20052;-69
2023/09/06 08:37:22;;;;;;;6.60;4.38;;;19.50;99.90;;;;;;5002888;28;20045;-70
2023/09/06 08:39:48;;;;;;;7.72;4.20;;;19.60;99.90;;;;;;5002630;28;20112;-70
2023/09/06 08:42:15;;;;;;;6.15;4.10;;;19.60;99.90;;;;;;5001380;28;20435;-70
2023/09/06 08:44:43;;;;;;;8.05;5.28;;;19.60;99.90;;;;;;5001430;28;20578;-70
2023/09/06 08:47:11;;;;;;;8.13;4.32;;;19.60;99.90;;;;;;5005254;28;20373;-70
2023/09/06 08:49:38;;;;;;;6.75;4.57;;;19.70;99.90;;;;;;5007861;28;20041;-70
2023/09/06 08:52:05;;;;;;;9.50;4.13;;;19.70;99.90;;;;;;4985657;28;20049;-69
2023/09/06 08:54:33;;;;;;;5.38;4.32;;;19.80;99.90;;;;;;5001069;28;20034;-70
2023/09/06 08:56:58;;;;;;;4.97;3.80;;;19.80;99.90;;;;;;4996774;28;20057;-70
2023/09/06 08:59:25;;;;;;;6.40;3.88;;;19.90;99.90;;;;;;5001613;28;20053;-70
2023/09/06 09:01:51;;;;;;;5.68;3.85;;;20.00;99.90;;;;;;5002411;28;20077;-70
2023/09/06 09:04:17;;;;;;;5.18;4.25;;;20.10;99.90;;;;;;4992349;28;20456;-70
2023/09/06 09:06:43;;;;;;;6.38;4.55;;;20.10;99.90;;;;;;5001485;28;20120;-70
2023/09/06 09:09:17;;;;;;;5.20;3.40;;;20.20;99.90;;;;;;4994822;28;20278;-70
2023/09/06 09:11:49;;;;;;;5.90;3.92;;;20.20;99.90;;;;;;5000663;28;20329;-70
2023/09/06 09:14:25;;;;;;;5.70;3.88;;;20.30;99.90;;;;;;5001746;28;20042;-70
2023/09/06 09:16:59;;;;;;;7.20;4.55;;;20.40;99.90;;;;;;5000686;28;20045;-70
2023/09/06 09:19:25;;;;;;;6.47;4.10;;;20.40;99.90;;;;;;4984610;28;20217;-70
2023/09/06 09:21:52;;;;;;;5.53;3.70;;;20.40;99.90;;;;;;5001438;28;20049;-70
2023/09/06 09:24:30;;;;;;;7.72;4.30;;;20.50;99.90;;;;;;5000140;28;20046;-70
2023/09/06 09:26:56;;;;;;;5.93;4.25;;;20.50;99.90;;;;;;5001158;28;20046;-70
2023/09/06 09:29:27;;;;;;;5.32;3.72;;;20.60;99.90;;;;;;5001156;28;20050;-70
2023/09/06 09:31:53;;;;;;;5.83;4.07;;;20.60;99.90;;;;;;4984652;28;20045;-70
2023/09/06 09:34:19;;;;;;;6.53;3.63;;;20.70;99.90;;;;;;4996823;28;20038;-70
2023/09/06 09:36:51;;;;;;;5.97;4.60;;;20.70;99.90;;;;;;4978615;28;20096;-70
2023/09/06 09:39:18;;;;;;;5.53;3.78;;;20.70;99.90;;;;;;4998637;28;20041;-70
2023/09/06 09:41:44;;;;;;;10.00;4.10;;;20.80;99.90;;;;;;4979569;28;20194;-70
2023/09/06 09:44:13;;;;;;;8.48;4.03;;;20.80;99.90;;;;;;4994485;28;20333;-70
2023/09/06 09:46:41;;;;;;;9.90;3.70;;;20.90;99.90;;;;;;4983372;28;20053;-70
2023/09/06 09:49:08;;;;;;;5.38;4.05;;;21.00;99.90;;;;;;5001150;28;20760;-70
2023/09/06 09:51:35;;;;;;;5.28;3.97;;;21.00;99.90;;;;;;5001831;28;20077;-70
2023/09/06 09:54:03;;;;;;;4.50;3.10;;;21.10;99.90;;;;;;4999513;28;20615;-70
2023/09/06 09:56:30;;;;;;;3.40;2.90;;;21.20;99.90;;;;;;5000062;28;20149;-71
2023/09/06 09:58:57;;;;;;;4.65;3.47;;;21.20;99.90;;;;;;5000338;28;20557;-71
2023/09/06 10:01:22;;;;;;;7.35;3.00;;;21.20;99.90;;;;;;5001930;28;20052;-71
2023/09/06 10:03:49;;;;;;;5.60;3.13;;;21.30;99.90;;;;;;4998103;28;20467;-70
2023/09/06 10:06:17;;;;;;;3.88;2.85;;;21.40;99.90;;;;;;4994857;28;20082;-70
2023/09/06 10:08:45;;;;;;;6.40;3.25;;;21.40;99.90;;;;;;4999423;28;20108;-70
2023/09/06 10:11:13;;;;;;;4.45;3.08;;;21.40;99.90;;;;;;5000901;28;20089;-71
2023/09/06 10:13:39;;;;;;;3.63;2.42;;;21.50;99.90;;;;;;5000606;28;20069;-74
2023/09/06 10:16:06;;;;;;;3.22;2.65;;;21.50;99.90;;;;;;5001188;28;20133;-72
2023/09/06 10:18:32;;;;;;;5.30;2.70;;;21.60;99.90;;;;;;5001052;28;20088;-71
2023/09/06 10:20:59;;;;;;;3.60;2.75;;;21.60;99.90;;;;;;5000849;28;20843;-71
2023/09/06 10:23:30;;;;;;;3.63;2.92;;;21.60;99.90;;;;;;4983658;28;20544;-71
2023/09/06 10:26:00;;;;;;;3.53;3.22;;;21.70;99.90;;;;;;4995717;28;20056;-71
2023/09/06 10:28:31;;;;;;;6.32;2.85;;;21.80;99.90;;;;;;4999358;28;20103;-71
2023/09/06 10:31:07;;;;;;;4.82;2.75;;;21.80;99.90;;;;;;4995673;28;20470;-71
2023/09/06 10:33:35;;;;;;;5.28;3.60;;;21.90;99.90;;;;;;5002947;28;20147;-71
2023/09/06 10:36:09;;;;;;;5.68;2.58;;;22.00;99.90;;;;;;5003294;28;20085;-70
2023/09/06 10:38:54;;;;;;;5.60;2.88;;;22.00;99.90;;;;;;4987091;28;20049;-71
2023/09/06 10:41:21;;;;;;;3.97;2.95;;;22.10;99.90;;;;;;5005442;28;20042;-71
2023/09/06 10:43:59;;;;;;;2.60;2.40;;;22.00;99.90;;;;;;5003684;28;20516;-71
2023/09/06 10:46:27;;;;;;;3.47;2.30;;;22.10;99.90;;;;;;5009690;28;20059;-71
2023/09/06 10:49:16;;;;;;;3.83;2.90;;;22.10;99.90;;;;;;5019388;28;20050;-71
2023/09/06 10:52:11;;;;;;;5.93;2.53;;;22.20;99.90;;;;;;5017573;28;20084;-71
2023/09/06 10:54:43;;;;;;;4.60;2.88;;;22.30;99.90;;;;;;5018946;28;20435;-70
2023/09/06 10:57:14;;;;;;;6.13;2.63;;;22.30;99.90;;;;;;5012306;28;20131;-71
2023/09/06 10:59:57;;;;;;;2.45;1.83;;;22.40;99.90;;;;;;5004102;28;20184;-71
2023/09/06 11:02:22;;;;;;;3.83;2.40;;;22.50;99.90;;;;;;5013323;28;20414;-71
2023/09/06 11:04:58;;;;;;;2.47;2.28;;;22.50;99.90;;;;;;5004643;28;20034;-70
2023/09/06 11:07:41;;;;;;;2.65;2.33;;;22.60;99.90;;;;;;5013818;28;20281;-71
2023/09/06 11:10:07;;;;;;;3.13;2.40;;;22.60;99.90;;;;;;5012114;28;20148;-70
2023/09/06 11:12:34;;;;;;;2.75;2.40;;;22.60;99.90;;;;;;5005755;28;20065;-71
2023/09/06 11:15:00;;;;;;;2.50;2.30;;;22.70;99.90;;;;;;5004783;28;20053;-71
2023/09/06 11:17:26;;;;;;;4.90;2.90;;;22.80;99.90;;;;;;5004032;28;20169;-71
2023/09/06 11:19:52;;;;;;;3.08;2.47;;;22.80;99.90;;;;;;4997742;28;20214;-70
2023/09/06 11:22:19;;;;;;;5.22;2.60;;;22.90;99.90;;;;;;5014908;28;20598;-71
2023/09/06 11:24:44;;;;;;;3.35;2.47;;;22.90;99.90;;;;;;4992275;28;20053;-72
2023/09/06 11:27:29;;;;;;;2.60;2.30;;;22.90;99.90;;;;;;5002918;28;20404;-72
2023/09/06 11:30:15;;;;;;;2.22;1.90;;;23.00;99.90;;;;;;5003287;28;20096;-73
2023/09/06 11:32:44;;;;;;;2.50;2.30;;;22.90;99.90;;;;;;4991013;28;20092;-75
2023/09/06 11:35:11;;;;;;;3.17;2.20;;;23.10;99.90;;;;;;4999027;28;20096;-73
2023/09/06 11:37:44;;;;;;;2.90;2.03;;;23.10;99.90;;;;;;5002731;28;20038;-72
2023/09/06 11:40:15;;;;;;;3.08;2.25;;;23.20;99.90;;;;;;4999096;28;20388;-73
2023/09/06 11:42:47;;;;;;;2.42;2.10;;;23.30;99.90;;;;;;5005916;28;20468;-72
2023/09/06 11:45:16;;;;;;;2.42;2.22;;;23.20;99.90;;;;;;5001441;28;20038;-72
2023/09/06 11:47:46;;;;;;;2.05;1.90;;;23.30;99.90;;;;;;5005065;28;20068;-73
2023/09/06 11:50:15;;;;;;;1.80;1.70;;;23.20;99.90;;;;;;5001096;28;20052;-73
2023/09/06 11:52:49;;;;;;;2.90;2.15;;;23.30;99.90;;;;;;5002493;28;20042;-73
2023/09/06 11:55:18;;;;;;;4.15;2.25;;;23.20;99.90;;;;;;5004106;28;20049;-74
2023/09/06 11:57:51;;;;;;;2.35;1.90;;;23.40;99.90;;;;;;5002479;28;20049;-75
2023/09/06 12:00:27;;;;;;;4.07;2.28;;;23.40;99.90;;;;;;5020690;28;20120;-75
2023/09/06 12:03:01;;;;;;;4.25;2.20;;;23.40;99.90;;;;;;5009813;28;20046;-74
2023/09/06 12:05:27;;;;;;;2.25;2.05;;;23.40;99.90;;;;;;5002371;28;20053;-75
2023/09/06 12:07:56;;;;;;;2.70;2.13;;;23.40;99.90;;;;;;5002978;28;20447;-74
2023/09/06 12:10:22;;;;;;;4.68;1.90;;;23.40;99.90;;;;;;5001072;28;20059;-73
2023/09/06 12:12:49;;;;;;;6.20;2.13;;;23.40;99.90;;;;;;4986337;28;20073;-75
2023/09/06 12:15:20;;;;;;;2.63;2.42;;;23.50;99.90;;;;;;5003155;28;20057;-73
2023/09/06 12:17:47;;;;;;;1.92;1.75;;;23.50;99.90;;;;;;5001970;28;20077;-74
2023/09/06 12:20:20;;;;;;;1.98;1.65;;;23.60;99.90;;;;;;4999762;28;20498;-73
2023/09/06 12:22:47;;;;;;;2.50;1.70;;;23.60;99.90;;;;;;5015319;28;20034;-74
2023/09/06 12:25:18;;;;;;;3.35;2.53;;;23.60;99.90;;;;;;4999515;28;20045;-73
2023/09/06 12:27:44;;;;;;;2.23;1.60;;;23.70;99.90;;;;;;4998660;28;20060;-74
2023/09/06 12:30:11;;;;;;;2.20;2.00;;;23.80;99.90;;;;;;5002971;28;20104;-73
2023/09/06 12:32:40;;;;;;;2.50;1.90;;;23.80;99.90;;;;;;5003887;28;20084;-74
2023/09/06 12:35:07;;;;;;;3.38;1.90;;;23.90;99.90;;;;;;5017115;28;20507;-74
2023/09/06 12:37:35;;;;;;;2.30;2.10;;;24.00;99.90;;;;;;5002332;28;20100;-72
2023/09/06 12:40:01;;;;;;;1.85;1.75;;;24.00;99.90;;;;;;5000704;28;20049;-73
2023/09/06 12:42:27;;;;;;;2.83;1.52;;;24.10;99.90;;;;;;5002765;28;20046;-73
2023/09/06 12:44:52;;;;;;;2.78;2.03;;;24.20;99.90;;;;;;5002037;28;20396;-74
2023/09/06 12:47:18;;;;;;;2.67;1.98;;;24.20;99.90;;;;;;5005950;28;20034;-73
2023/09/06 12:49:43;;;;;;;2.72;2.03;;;24.20;99.90;;;;;;5002944;28;20048;-73
2023/09/06 12:52:10;;;;;;;1.98;1.70;;;24.20;99.90;;;;;;4988103;28;20034;-73